Time;durP1;ratioP1;P1;durP2;ratioP2;P2;SDS_P1;SDS_P2;PMS_P1;PMS_P2;Temp;Humidity;BMP_temperature;BMP_pressure;BME280_temperature;BME280_humidity;BME280_pressure;Samples;Min_cycle;Max_cycle;Signal;HPM_P1;HPM_P2
2021/01/22 00:00:51;;;;;;;52.90;41.67;;;18.10;99.90;;;;;;5072116;28;20036;-31
2021/01/22 00:03:17;;;;;;;51.45;41.25;;;18.00;99.90;;;;;;5071874;28;20096;-31
2021/01/22 00:05:43;;;;;;;47.65;38.58;;;18.00;99.90;;;;;;5072222;28;20450;-31
2021/01/22 00:08:09;;;;;;;45.05;37.58;;;18.00;99.90;;;;;;5071793;28;20481;-30
2021/01/22 00:10:34;;;;;;;44.42;36.85;;;18.00;99.90;;;;;;5072092;28;20421;-30
2021/01/22 00:13:00;;;;;;;48.47;39.28;;;18.00;99.90;;;;;;5071821;28;20044;-30
2021/01/22 00:15:26;;;;;;;42.55;35.80;;;17.90;99.90;;;;;;5071877;28;20147;-30
2021/01/22 00:17:52;;;;;;;43.20;35.10;;;17.90;99.90;;;;;;5071744;28;20103;-30
2021/01/22 00:20:18;;;;;;;48.25;37.60;;;17.90;99.90;;;;;;5071953;28;20035;-30
2021/01/22 00:22:43;;;;;;;54.22;44.17;;;17.90;99.90;;;;;;5071652;28;20029;-30
2021/01/22 00:25:10;;;;;;;46.75;36.85;;;17.90;99.90;;;;;;5071763;28;20021;-31
2021/01/22 00:27:36;;;;;;;46.80;39.25;;;17.90;99.90;;;;;;5071757;28;20024;-30
2021/01/22 00:30:02;;;;;;;45.15;37.45;;;17.90;99.90;;;;;;5071767;28;20028;-30
2021/01/22 00:32:28;;;;;;;43.58;34.47;;;17.80;99.90;;;;;;5071962;28;20031;-30
2021/01/22 00:34:54;;;;;;;41.63;35.17;;;17.80;99.90;;;;;;5071633;28;20044;-31
2021/01/22 00:37:19;;;;;;;40.88;33.22;;;17.80;99.90;;;;;;5071594;28;20028;-30
2021/01/22 00:39:45;;;;;;;39.92;31.35;;;17.80;99.90;;;;;;5071416;28;20107;-30
2021/01/22 00:42:11;;;;;;;38.08;30.58;;;17.80;99.90;;;;;;5071804;28;20032;-30
2021/01/22 00:44:37;;;;;;;39.33;30.73;;;17.70;99.90;;;;;;5071755;28;20035;-30
2021/01/22 00:47:03;;;;;;;32.72;28.08;;;17.80;99.90;;;;;;5078174;28;20374;-30
2021/01/22 00:49:29;;;;;;;33.90;27.90;;;17.70;99.90;;;;;;5078115;28;20474;-30
2021/01/22 00:51:54;;;;;;;33.60;27.52;;;17.80;99.90;;;;;;5078412;28;20050;-30
2021/01/22 00:54:20;;;;;;;33.67;26.92;;;17.70;99.90;;;;;;5077859;28;20032;-30
2021/01/22 00:56:46;;;;;;;32.90;26.98;;;17.70;99.90;;;;;;5078189;28;20034;-30
2021/01/22 00:59:12;;;;;;;32.53;26.00;;;17.70;99.90;;;;;;5078127;28;20478;-30
2021/01/22 01:01:38;;;;;;;33.10;26.45;;;17.70;99.90;;;;;;5078032;28;20028;-30
2021/01/22 01:04:03;;;;;;;33.38;25.48;;;17.60;99.90;;;;;;5078061;28;20032;-30
2021/01/22 01:06:29;;;;;;;29.20;24.02;;;17.70;99.90;;;;;;5077984;28;20084;-31
2021/01/22 01:08:55;;;;;;;31.65;25.83;;;17.60;99.90;;;;;;5078078;28;20425;-30
2021/01/22 01:11:21;;;;;;;33.25;24.02;;;17.60;99.90;;;;;;5077940;28;20406;-30
2021/01/22 01:13:47;;;;;;;30.02;23.30;;;17.60;99.90;;;;;;5077996;28;20459;-30
2021/01/22 01:16:12;;;;;;;31.08;23.63;;;17.60;99.90;;;;;;5078059;28;20090;-30
2021/01/22 01:18:38;;;;;;;28.40;22.75;;;17.60;99.90;;;;;;5078016;28;20027;-30
2021/01/22 01:21:05;;;;;;;28.73;22.65;;;17.60;99.90;;;;;;5077813;28;20034;-30
2021/01/22 01:23:30;;;;;;;30.88;24.00;;;17.50;99.90;;;;;;5078045;28;20021;-30
2021/01/22 01:25:56;;;;;;;30.63;24.55;;;17.50;99.90;;;;;;5077877;28;20071;-30
2021/01/22 01:28:22;;;;;;;34.10;24.33;;;17.60;99.90;;;;;;5078159;28;20452;-30
2021/01/22 01:30:48;;;;;;;34.53;27.00;;;17.50;99.90;;;;;;5078245;28;20070;-30
2021/01/22 01:33:14;;;;;;;39.47;32.00;;;17.50;99.90;;;;;;5077727;28;20028;-30
2021/01/22 01:35:39;;;;;;;33.55;27.67;;;17.60;99.90;;;;;;5077546;28;20445;-30
2021/01/22 01:38:05;;;;;;;35.30;28.63;;;17.50;99.90;;;;;;5077882;28;20021;-30
2021/01/22 01:40:31;;;;;;;36.85;29.10;;;17.50;99.90;;;;;;5077484;28;20065;-30
2021/01/22 01:42:57;;;;;;;36.72;29.05;;;17.50;99.90;;;;;;5077770;28;20151;-31
2021/01/22 01:45:24;;;;;;;38.72;30.20;;;17.50;99.90;;;;;;5077689;28;20424;-31
2021/01/22 01:47:50;;;;;;;41.78;34.08;;;17.50;99.90;;;;;;5077718;28;20024;-31
2021/01/22 01:50:16;;;;;;;43.42;35.17;;;17.50;99.90;;;;;;5077812;28;20031;-31
2021/01/22 01:52:43;;;;;;;42.55;34.17;;;17.50;99.90;;;;;;5077515;28;20419;-30
2021/01/22 01:55:09;;;;;;;38.75;33.67;;;17.50;99.90;;;;;;5077732;28;20027;-30
2021/01/22 01:57:36;;;;;;;40.65;32.10;;;17.50;99.90;;;;;;5074839;28;20218;-31
2021/01/22 02:00:04;;;;;;;37.47;31.50;;;17.50;99.90;;;;;;5074777;28;20024;-31
2021/01/22 02:02:30;;;;;;;40.28;32.95;;;17.50;99.90;;;;;;5067278;28;20021;-30
2021/01/22 02:04:57;;;;;;;37.35;30.58;;;17.50;99.90;;;;;;5054315;28;20087;-30
2021/01/22 02:07:23;;;;;;;38.58;32.97;;;17.40;99.90;;;;;;5054312;28;20049;-30
2021/01/22 02:09:50;;;;;;;39.03;32.13;;;17.40;99.90;;;;;;5054043;28;20416;-30
2021/01/22 02:12:17;;;;;;;35.45;31.40;;;17.40;99.90;;;;;;5054005;28;20434;-31
2021/01/22 02:14:44;;;;;;;40.20;31.88;;;17.40;99.90;;;;;;5054172;28;20467;-31
2021/01/22 02:17:11;;;;;;;38.90;32.08;;;17.40;99.90;;;;;;5053974;28;20051;-31
2021/01/22 02:19:52;;;;;;;36.90;31.55;;;17.40;99.90;;;;;;5054053;28;20083;-30
2021/01/22 02:22:20;;;;;;;36.03;30.23;;;17.40;99.90;;;;;;5053954;28;20025;-30
2021/01/22 02:24:47;;;;;;;38.15;31.17;;;17.40;99.90;;;;;;5053727;28;20053;-30
2021/01/22 02:27:17;;;;;;;38.67;31.02;;;17.40;99.90;;;;;;5054089;28;20479;-30
2021/01/22 02:29:44;;;;;;;39.65;31.60;;;17.40;99.90;;;;;;5053878;28;20491;-31
2021/01/22 02:32:12;;;;;;;42.53;34.58;;;17.40;99.90;;;;;;5053819;28;20029;-30
2021/01/22 02:34:40;;;;;;;46.10;32.45;;;17.40;99.90;;;;;;5064119;28;20123;-30
2021/01/22 02:37:10;;;;;;;35.78;30.75;;;17.30;99.90;;;;;;5073773;28;20028;-30
2021/01/22 02:39:40;;;;;;;39.40;31.67;;;17.30;99.90;;;;;;5073798;28;20016;-31
2021/01/22 02:42:08;;;;;;;36.50;31.48;;;17.30;99.90;;;;;;5073706;28;20402;-30
2021/01/22 02:44:35;;;;;;;41.30;32.65;;;17.30;99.90;;;;;;5073680;28;20438;-30
2021/01/22 02:47:06;;;;;;;38.90;31.33;;;17.40;99.90;;;;;;5073764;28;20429;-30
2021/01/22 02:49:32;;;;;;;41.22;33.97;;;17.30;99.90;;;;;;5073731;28;20048;-31
2021/01/22 02:51:58;;;;;;;41.28;31.88;;;17.30;99.90;;;;;;5073576;28;20360;-30
2021/01/22 02:54:25;;;;;;;38.10;30.67;;;17.30;99.90;;;;;;5073447;28;20024;-30
2021/01/22 02:57:19;;;;;;;37.22;30.48;;;17.30;99.90;;;;;;5073168;28;20016;-31
2021/01/22 03:00:14;;;;;;;40.88;30.92;;;17.30;99.90;;;;;;5073391;28;20052;-31
2021/01/22 03:02:54;;;;;;;37.97;29.73;;;17.30;99.90;;;;;;5073332;28;20035;-28
2021/01/22 03:05:25;;;;;;;37.38;29.52;;;17.30;99.90;;;;;;5073023;28;20476;-30
2021/01/22 03:08:02;;;;;;;41.67;30.65;;;17.30;99.90;;;;;;5073200;28;20103;-30
2021/01/22 03:10:29;;;;;;;33.65;28.67;;;17.30;99.90;;;;;;5073050;28;20021;-30
2021/01/22 03:12:57;;;;;;;33.72;28.73;;;17.30;99.90;;;;;;5073216;28;20095;-30
2021/01/22 03:15:23;;;;;;;34.40;29.00;;;17.30;99.90;;;;;;5072898;28;20039;-32
2021/01/22 03:17:49;;;;;;;35.42;28.55;;;17.30;99.90;;;;;;5073225;28;20378;-31
2021/01/22 03:20:16;;;;;;;34.92;28.30;;;17.30;99.90;;;;;;5073009;28;20028;-30
2021/01/22 03:22:42;;;;;;;35.67;28.92;;;17.30;99.90;;;;;;5072791;28;20029;-30
2021/01/22 03:25:12;;;;;;;34.90;29.55;;;17.30;99.90;;;;;;5072543;28;20428;-30
2021/01/22 03:27:39;;;;;;;34.20;28.58;;;17.30;99.90;;;;;;5072956;28;20066;-30
2021/01/22 03:30:05;;;;;;;30.38;26.35;;;17.30;99.90;;;;;;5072823;28;20029;-30
2021/01/22 03:32:31;;;;;;;34.17;28.40;;;17.30;99.90;;;;;;5072849;28;20032;-30
2021/01/22 03:34:57;;;;;;;31.02;27.67;;;17.20;99.90;;;;;;5072413;28;20044;-30
2021/01/22 03:37:23;;;;;;;33.83;27.80;;;17.30;99.90;;;;;;5072515;28;20027;-30
2021/01/22 03:39:49;;;;;;;32.83;27.80;;;17.20;99.90;;;;;;5072520;28;20029;-30
2021/01/22 03:42:14;;;;;;;35.42;28.65;;;17.20;99.90;;;;;;5072518;28;20352;-30
2021/01/22 03:44:40;;;;;;;32.75;27.85;;;17.20;99.90;;;;;;5072344;28;20032;-30
2021/01/22 03:47:06;;;;;;;33.85;26.25;;;17.20;99.90;;;;;;5072352;28;20360;-30
2021/01/22 03:49:32;;;;;;;37.28;28.50;;;17.30;99.90;;;;;;5072225;28;20378;-30
2021/01/22 03:52:02;;;;;;;34.70;27.65;;;17.30;99.90;;;;;;5072331;28;20024;-30
2021/01/22 03:54:28;;;;;;;32.15;25.80;;;17.20;99.90;;;;;;5072265;28;20167;-30
2021/01/22 03:56:55;;;;;;;32.05;25.25;;;17.20;99.90;;;;;;5072125;28;20480;-30
2021/01/22 03:59:21;;;;;;;32.03;25.00;;;17.30;99.90;;;;;;5072236;28;20101;-30
2021/01/22 04:01:47;;;;;;;32.58;25.75;;;17.20;99.90;;;;;;5072033;28;20063;-32
2021/01/22 04:04:12;;;;;;;29.20;25.02;;;17.20;99.90;;;;;;5072027;28;20048;-30
2021/01/22 04:06:38;;;;;;;27.58;23.10;;;17.30;99.90;;;;;;5072044;28;20541;-30
2021/01/22 04:09:05;;;;;;;28.73;24.23;;;17.20;99.90;;;;;;5072025;28;20024;-30
2021/01/22 04:11:31;;;;;;;32.70;24.15;;;17.20;99.90;;;;;;5072160;28;20067;-30
2021/01/22 04:13:57;;;;;;;29.13;22.85;;;17.20;99.90;;;;;;5072119;28;20052;-31
2021/01/22 04:16:23;;;;;;;33.05;24.83;;;17.20;99.90;;;;;;5072124;28;20578;-30
2021/01/22 04:18:48;;;;;;;30.38;25.30;;;17.20;99.90;;;;;;5072071;28;20441;-30
2021/01/22 04:21:14;;;;;;;30.27;24.42;;;17.20;99.90;;;;;;5071383;28;20036;-30
2021/01/22 04:23:40;;;;;;;28.75;23.25;;;17.20;99.90;;;;;;5071894;28;20024;-30
2021/01/22 04:26:06;;;;;;;30.50;24.08;;;17.20;99.90;;;;;;5071878;28;20029;-30
2021/01/22 04:28:32;;;;;;;26.88;23.55;;;17.20;99.90;;;;;;5071875;28;20021;-30
2021/01/22 04:30:58;;;;;;;29.45;24.42;;;17.20;99.90;;;;;;5072225;28;20028;-30
2021/01/22 04:33:24;;;;;;;27.08;22.40;;;17.20;99.90;;;;;;5071513;28;20373;-30
2021/01/22 04:35:49;;;;;;;29.75;24.23;;;17.20;99.90;;;;;;5071630;28;20039;-31
2021/01/22 04:38:16;;;;;;;29.48;23.98;;;17.20;99.90;;;;;;5071789;28;20059;-31
2021/01/22 04:40:42;;;;;;;29.67;23.55;;;17.20;99.90;;;;;;5053765;28;20021;-31
2021/01/22 04:43:08;;;;;;;27.92;23.25;;;17.20;99.90;;;;;;5071676;28;20051;-30
2021/01/22 04:45:34;;;;;;;28.80;22.02;;;17.20;99.90;;;;;;5071700;28;20095;-30
2021/01/22 04:48:02;;;;;;;28.23;22.75;;;17.20;99.90;;;;;;5071892;28;20100;-30
2021/01/22 04:50:29;;;;;;;28.95;22.45;;;17.20;99.90;;;;;;5071543;28;20012;-30
2021/01/22 04:52:57;;;;;;;25.30;21.50;;;17.20;99.90;;;;;;5071678;28;20028;-30
2021/01/22 04:55:25;;;;;;;;;;;17.20;99.90;;;;;;5072149;28;20037;-31
2021/01/22 04:57:53;;;;;;;28.60;21.33;;;17.20;99.90;;;;;;5053564;28;19905;-30
2021/01/22 05:00:19;;;;;;;;;;;17.20;99.90;;;;;;5071812;28;20120;-31
2021/01/22 05:02:45;;;;;;;23.83;19.95;;;17.30;99.90;;;;;;5071475;28;20344;-30
2021/01/22 05:05:11;;;;;;;24.90;20.00;;;17.20;99.90;;;;;;5071366;28;20021;-31
2021/01/22 05:07:37;;;;;;;26.60;19.60;;;17.20;99.90;;;;;;5071509;28;20035;-30
2021/01/22 05:10:03;;;;;;;27.23;20.88;;;17.20;99.90;;;;;;5070969;28;20029;-30
2021/01/22 05:12:34;;;;;;;25.30;18.48;;;17.10;99.90;;;;;;5072568;28;20025;-30
2021/01/22 05:15:21;;;;;;;27.98;19.20;;;17.10;99.90;;;;;;5071428;28;20027;-30
2021/01/22 05:18:00;;;;;;;24.30;17.65;;;17.20;99.90;;;;;;5072092;28;20024;-30
2021/01/22 05:20:28;;;;;;;20.48;16.42;;;17.20;99.90;;;;;;5090130;28;20032;-32
2021/01/22 05:22:54;;;;;;;25.05;19.17;;;17.10;99.90;;;;;;5092048;28;20027;-30
2021/01/22 05:25:20;;;;;;;31.13;22.05;;;17.20;99.90;;;;;;5091902;28;20031;-30
2021/01/22 05:27:54;;;;;;;29.27;21.80;;;17.20;99.90;;;;;;5091651;28;20082;-30
2021/01/22 05:30:23;;;;;;;23.83;20.30;;;17.10;99.90;;;;;;5092106;28;20347;-30
2021/01/22 05:32:49;;;;;;;25.48;21.30;;;17.10;99.90;;;;;;5093496;28;20078;-30
2021/01/22 05:35:30;;;;;;;22.90;19.67;;;17.10;99.90;;;;;;5094444;28;20247;-30
2021/01/22 05:37:56;;;;;;;29.25;21.70;;;17.10;99.90;;;;;;5096828;28;20028;-30
2021/01/22 05:40:23;;;;;;;29.48;21.00;;;17.10;99.90;;;;;;5103801;28;20039;-30
2021/01/22 05:42:50;;;;;;;28.20;20.83;;;17.10;99.90;;;;;;5103618;28;20156;-31
2021/01/22 05:45:19;;;;;;;25.53;20.37;;;17.10;99.90;;;;;;5100850;28;20028;-30
2021/01/22 05:47:45;;;;;;;31.60;23.73;;;17.10;99.90;;;;;;5100293;28;20313;-30
2021/01/22 05:50:12;;;;;;;28.17;21.58;;;17.10;99.90;;;;;;5094557;28;20034;-30
2021/01/22 05:52:38;;;;;;;30.00;20.38;;;17.10;99.90;;;;;;5094954;28;20035;-30
2021/01/22 05:55:20;;;;;;;31.23;23.02;;;17.10;99.90;;;;;;5101472;28;20024;-30
2021/01/22 05:57:46;;;;;;;25.73;19.80;;;17.10;99.90;;;;;;5105014;28;20015;-30
2021/01/22 06:00:14;;;;;;;29.20;21.58;;;17.10;99.90;;;;;;5101784;28;20071;-30
2021/01/22 06:02:40;;;;;;;29.42;21.55;;;17.10;99.90;;;;;;5096970;28;20028;-31
2021/01/22 06:05:11;;;;;;;30.02;21.85;;;17.10;99.90;;;;;;5094024;28;20028;-31
2021/01/22 06:07:43;;;;;;;28.80;23.08;;;17.10;99.90;;;;;;5094242;28;20022;-30
2021/01/22 06:10:22;;;;;;;27.35;23.30;;;17.10;99.90;;;;;;5094397;28;20020;-31
2021/01/22 06:12:55;;;;;;;32.03;25.38;;;17.10;99.90;;;;;;5094071;28;20488;-31
2021/01/22 06:15:23;;;;;;;32.15;25.02;;;17.10;99.90;;;;;;5094203;28;20024;-31
2021/01/22 06:17:53;;;;;;;37.88;26.67;;;17.10;99.90;;;;;;5094371;28;20399;-31
2021/01/22 06:20:29;;;;;;;28.83;24.33;;;17.10;99.90;;;;;;5094254;28;20024;-30
2021/01/22 06:23:14;;;;;;;32.05;24.27;;;17.10;99.90;;;;;;5094041;28;20038;-31
2021/01/22 06:25:42;;;;;;;36.67;25.52;;;17.10;99.90;;;;;;5073884;28;20024;-30
2021/01/22 06:28:10;;;;;;;35.13;26.70;;;17.10;99.90;;;;;;5092057;28;20475;-31
2021/01/22 06:30:38;;;;;;;39.30;27.67;;;17.10;99.90;;;;;;5096053;28;20028;-31
2021/01/22 06:33:06;;;;;;;34.22;28.00;;;17.00;99.90;;;;;;5095585;28;20028;-31
2021/01/22 06:35:34;;;;;;;36.33;30.30;;;17.10;99.90;;;;;;5095112;28;20083;-30
2021/01/22 06:38:02;;;;;;;35.10;27.20;;;17.10;99.90;;;;;;5094477;28;20078;-29
2021/01/22 06:40:28;;;;;;;35.42;27.10;;;17.10;99.90;;;;;;5095354;28;20101;-29
2021/01/22 06:42:55;;;;;;;38.72;27.95;;;17.10;99.90;;;;;;5094148;28;20067;-29
2021/01/22 06:45:22;;;;;;;36.30;28.75;;;17.10;99.90;;;;;;5094887;28;20016;-29
2021/01/22 06:48:05;;;;;;;40.92;29.73;;;17.00;99.90;;;;;;5093458;28;20098;-29
2021/01/22 06:50:33;;;;;;;36.47;27.85;;;17.00;99.90;;;;;;5095254;28;20052;-29
2021/01/22 06:53:08;;;;;;;36.10;28.65;;;17.00;99.90;;;;;;5092866;28;20055;-29
2021/01/22 06:55:54;;;;;;;36.70;28.60;;;17.00;99.90;;;;;;5082668;28;20474;-32
2021/01/22 06:58:26;;;;;;;40.63;28.25;;;17.00;99.90;;;;;;5089833;28;20038;-29
2021/01/22 07:00:57;;;;;;;35.40;29.23;;;17.00;99.90;;;;;;5092471;28;20444;-30
2021/01/22 07:03:35;;;;;;;36.42;29.30;;;17.00;99.90;;;;;;5092438;28;20024;-30
2021/01/22 07:06:01;;;;;;;37.88;27.92;;;17.00;99.90;;;;;;5094591;28;20101;-30
2021/01/22 07:08:55;;;;;;;36.53;28.58;;;17.00;99.90;;;;;;5103372;28;20031;-30
2021/01/22 07:11:23;;;;;;;38.92;31.42;;;17.00;99.90;;;;;;5092624;28;20020;-30
2021/01/22 07:13:50;;;;;;;42.90;33.40;;;17.00;99.90;;;;;;5074749;28;20356;-30
2021/01/22 07:16:19;;;;;;;45.42;34.38;;;17.10;99.90;;;;;;5093099;28;20096;-30
2021/01/22 07:19:01;;;;;;;40.78;31.48;;;17.10;99.90;;;;;;5093048;28;20024;-30
2021/01/22 07:21:38;;;;;;;42.53;33.03;;;17.10;99.90;;;;;;5092654;28;20046;-31
2021/01/22 07:24:08;;;;;;;40.43;31.27;;;17.10;99.90;;;;;;5092893;28;20095;-30
2021/01/22 07:26:36;;;;;;;36.22;27.20;;;17.10;99.90;;;;;;5092748;28;20386;-31
2021/01/22 07:29:16;;;;;;;40.05;26.95;;;17.10;99.90;;;;;;5092587;28;20494;-31
2021/01/22 07:31:53;;;;;;;41.22;27.75;;;17.10;99.90;;;;;;5092742;28;20028;-31
2021/01/22 07:34:37;;;;;;;35.78;25.58;;;17.10;99.90;;;;;;5092599;28;20486;-31
2021/01/22 07:37:10;;;;;;;39.20;29.25;;;17.10;99.90;;;;;;5092581;28;20023;-30
2021/01/22 07:39:37;;;;;;;48.97;36.55;;;17.10;99.90;;;;;;5092580;28;20032;-30
2021/01/22 07:42:22;;;;;;;131.18;99.43;;;17.10;99.90;;;;;;5092415;28;20051;-30
2021/01/22 07:44:51;;;;;;;794.03;651.13;;;17.10;99.90;;;;;;5092464;28;20466;-30
2021/01/22 07:47:31;;;;;;;373.50;292.90;;;17.20;99.90;;;;;;5092302;28;20112;-30
2021/01/22 07:49:59;;;;;;;277.65;218.80;;;17.20;99.90;;;;;;5092435;28;20016;-32
2021/01/22 07:52:26;;;;;;;207.20;156.18;;;17.20;99.90;;;;;;5092291;28;20496;-30
2021/01/22 07:54:52;;;;;;;197.20;148.10;;;17.20;99.90;;;;;;5091653;28;20028;-31
2021/01/22 07:57:23;;;;;;;181.80;132.55;;;17.20;99.90;;;;;;5092046;28;20113;-31
2021/01/22 07:59:50;;;;;;;152.23;111.50;;;17.20;99.90;;;;;;5092283;28;20111;-30
2021/01/22 08:02:17;;;;;;;112.10;79.10;;;17.20;99.90;;;;;;5092053;28;20026;-30
2021/01/22 08:04:45;;;;;;;101.05;72.18;;;17.20;99.90;;;;;;5091982;28;20309;-30
2021/01/22 08:07:11;;;;;;;86.03;59.38;;;17.20;99.90;;;;;;5091949;28;20098;-30
2021/01/22 08:09:50;;;;;;;81.05;56.42;;;17.20;99.90;;;;;;5092136;28;20377;-30
2021/01/22 08:12:15;;;;;;;75.00;50.97;;;17.10;99.90;;;;;;5092534;28;20576;-30
2021/01/22 08:14:41;;;;;;;63.03;45.20;;;17.10;99.90;;;;;;5091582;28;20032;-31
2021/01/22 08:17:07;;;;;;;60.30;40.67;;;17.20;99.90;;;;;;5091846;28;20424;-31
2021/01/22 08:19:34;;;;;;;50.05;33.70;;;17.20;99.90;;;;;;5091886;28;20024;-30
2021/01/22 08:22:01;;;;;;;45.88;27.80;;;17.20;99.90;;;;;;5091637;28;20073;-30
2021/01/22 08:24:27;;;;;;;54.58;36.47;;;17.20;99.90;;;;;;5091864;28;20024;-30
2021/01/22 08:27:04;;;;;;;52.22;29.20;;;17.30;99.90;;;;;;5091623;28;20031;-30
2021/01/22 08:29:32;;;;;;;41.37;27.40;;;17.30;99.90;;;;;;5091643;28;20473;-30
2021/01/22 08:31:58;;;;;;;41.17;24.80;;;17.30;99.90;;;;;;5091452;28;20614;-30
2021/01/22 08:34:25;;;;;;;44.40;24.98;;;17.30;99.90;;;;;;5082903;28;20045;-31
2021/01/22 08:36:55;;;;;;;36.75;21.40;;;17.30;99.90;;;;;;5071472;28;20206;-30
2021/01/22 08:39:21;;;;;;;36.83;20.23;;;17.30;99.90;;;;;;5071581;28;20099;-30
2021/01/22 08:41:47;;;;;;;35.83;18.05;;;17.40;99.90;;;;;;5071219;28;20115;-30
2021/01/22 08:44:13;;;;;;;32.75;16.40;;;17.40;99.90;;;;;;5071537;28;20023;-30
2021/01/22 08:46:47;;;;;;;34.72;16.33;;;17.40;99.90;;;;;;5071097;28;20020;-30
2021/01/22 08:49:14;;;;;;;32.38;16.35;;;17.50;99.90;;;;;;5071274;28;20474;-30
2021/01/22 08:51:40;;;;;;;24.13;12.48;;;17.50;99.90;;;;;;5071257;28;20387;-30
2021/01/22 08:54:06;;;;;;;27.27;14.15;;;17.50;99.90;;;;;;5071451;28;20055;-30
2021/01/22 08:56:33;;;;;;;32.05;14.20;;;17.50;99.90;;;;;;5071160;28;20036;-30
2021/01/22 08:59:12;;;;;;;26.00;13.07;;;17.60;99.90;;;;;;5071389;28;20025;-28
2021/01/22 09:01:58;;;;;;;25.23;13.23;;;17.60;99.90;;;;;;5071265;28;20478;-29
2021/01/22 09:04:34;;;;;;;26.02;14.35;;;17.60;99.90;;;;;;5071411;28;20052;-30
2021/01/22 09:07:04;;;;;;;29.77;16.13;;;17.70;99.90;;;;;;5072815;28;20025;-30
2021/01/22 09:09:42;;;;;;;29.95;18.35;;;17.70;99.90;;;;;;5075042;28;20024;-30
2021/01/22 09:12:19;;;;;;;36.05;18.75;;;17.70;99.90;;;;;;5074562;28;20442;-30
2021/01/22 09:14:52;;;;;;;136.25;106.13;;;17.80;99.90;;;;;;5074368;28;20386;-30
2021/01/22 09:17:21;;;;;;;119.00;88.30;;;17.80;99.90;;;;;;5074083;28;20100;-30
2021/01/22 09:20:02;;;;;;;184.95;146.02;;;17.90;99.90;;;;;;5074052;28;20027;-30
2021/01/22 09:22:33;;;;;;;104.15;72.75;;;17.90;99.90;;;;;;5074566;28;20025;-30
2021/01/22 09:25:04;;;;;;;86.90;66.13;;;18.00;99.90;;;;;;5074732;28;20016;-30
2021/01/22 09:27:30;;;;;;;193.20;154.02;;;18.10;99.90;;;;;;5074885;28;20020;-30
2021/01/22 09:29:56;;;;;;;132.20;110.95;;;18.10;99.90;;;;;;5074791;28;20418;-30
2021/01/22 09:32:22;;;;;;;92.15;76.22;;;18.10;99.90;;;;;;5074831;28;20028;-30
2021/01/22 09:34:48;;;;;;;69.47;54.88;;;18.20;99.90;;;;;;5074762;28;20049;-30
2021/01/22 09:37:14;;;;;;;58.63;47.35;;;18.30;99.90;;;;;;5074551;28;20029;-30
2021/01/22 09:39:40;;;;;;;56.60;39.55;;;18.40;99.90;;;;;;5074869;28;20070;-30
2021/01/22 09:42:06;;;;;;;42.20;29.85;;;18.50;99.90;;;;;;5074311;28;20037;-30
2021/01/22 09:44:31;;;;;;;44.90;33.70;;;18.60;99.90;;;;;;5074686;28;20025;-31
2021/01/22 09:46:58;;;;;;;26.23;18.30;;;18.70;99.90;;;;;;5074526;28;20020;-30
2021/01/22 09:49:23;;;;;;;23.92;14.90;;;18.80;99.90;;;;;;5074860;28;20086;-30
2021/01/22 09:51:49;;;;;;;33.72;25.00;;;18.90;99.90;;;;;;5074473;28;20494;-30
2021/01/22 09:54:15;;;;;;;20.73;11.80;;;19.00;99.90;;;;;;5074058;28;20028;-30
2021/01/22 09:56:41;;;;;;;31.30;20.27;;;19.20;99.90;;;;;;5074584;28;20074;-31
2021/01/22 09:59:08;;;;;;;19.10;11.95;;;19.30;99.90;;;;;;5074315;28;20513;-30
2021/01/22 10:01:37;;;;;;;21.60;14.82;;;19.40;99.90;;;;;;5056667;28;20466;-30
2021/01/22 10:04:03;;;;;;;16.95;8.50;;;19.40;99.90;;;;;;5073928;28;20012;-30
2021/01/22 10:06:30;;;;;;;16.50;7.05;;;19.40;99.90;;;;;;5074133;28;20025;-30
2021/01/22 10:08:56;;;;;;;10.60;4.10;;;19.40;99.90;;;;;;5073718;28;20029;-30
2021/01/22 10:11:22;;;;;;;12.65;4.35;;;19.50;99.90;;;;;;5074066;28;20104;-30
2021/01/22 10:13:55;;;;;;;36.80;19.38;;;19.50;99.90;;;;;;5074080;28;20020;-31
2021/01/22 10:16:22;;;;;;;25.15;12.20;;;19.60;99.90;;;;;;5074288;28;20100;-31
2021/01/22 10:18:50;;;;;;;13.82;5.28;;;19.60;99.90;;;;;;5073050;28;20422;-31
2021/01/22 10:21:17;;;;;;;19.73;8.13;;;19.50;99.90;;;;;;5075057;28;20555;-31
2021/01/22 10:23:44;;;;;;;17.77;10.63;;;19.50;99.90;;;;;;5075407;28;20075;-31
2021/01/22 10:26:10;;;;;;;30.27;14.05;;;19.50;99.90;;;;;;5075210;28;20021;-31
2021/01/22 10:28:35;;;;;;;19.02;9.15;;;19.50;99.90;;;;;;5074821;28;20070;-31
2021/01/22 10:31:01;;;;;;;10.13;5.32;;;19.50;99.90;;;;;;5075365;28;20025;-31
2021/01/22 10:33:27;;;;;;;14.07;6.97;;;19.50;99.90;;;;;;5075841;28;20036;-31
2021/01/22 10:35:53;;;;;;;13.68;5.95;;;19.50;99.90;;;;;;5095360;28;20099;-31
2021/01/22 10:38:19;;;;;;;14.55;4.60;;;19.50;99.90;;;;;;5095019;28;20048;-31
2021/01/22 10:40:44;;;;;;;7.82;2.55;;;19.50;99.90;;;;;;5095350;28;20057;-31
2021/01/22 10:43:10;;;;;;;12.32;6.28;;;19.50;99.90;;;;;;5102679;28;20485;-31
2021/01/22 10:45:36;;;;;;;11.07;3.85;;;19.60;99.90;;;;;;5115717;28;20028;-31
2021/01/22 10:48:02;;;;;;;16.05;9.90;;;19.70;99.90;;;;;;5115681;28;20142;-31
2021/01/22 10:50:28;;;;;;;25.95;15.70;;;19.70;99.90;;;;;;5115244;28;20023;-31
2021/01/22 10:52:53;;;;;;;45.67;34.22;;;19.80;99.90;;;;;;5100593;28;20420;-31
2021/01/22 10:55:19;;;;;;;33.83;26.65;;;19.80;99.90;;;;;;5115365;28;20030;-31
2021/01/22 10:57:45;;;;;;;38.88;28.85;;;19.90;99.90;;;;;;5115265;28;20501;-31
2021/01/22 11:00:12;;;;;;;96.32;73.70;;;20.00;99.90;;;;;;5115620;28;20031;-31
2021/01/22 11:02:38;;;;;;;30.20;21.85;;;20.00;99.90;;;;;;5115009;28;20073;-31
2021/01/22 11:05:05;;;;;;;22.60;15.30;;;20.10;99.90;;;;;;5114362;28;21946;-31
2021/01/22 11:07:30;;;;;;;16.17;8.85;;;20.20;99.90;;;;;;5089906;28;20021;-31
2021/01/22 11:09:56;;;;;;;13.80;5.25;;;20.30;99.90;;;;;;5074311;28;20042;-31
2021/01/22 11:12:22;;;;;;;19.30;11.40;;;20.40;99.90;;;;;;5074407;28;20049;-31
2021/01/22 11:14:48;;;;;;;33.85;19.90;;;20.50;99.90;;;;;;5074131;28;20099;-31
2021/01/22 11:17:14;;;;;;;22.95;13.02;;;20.50;99.90;;;;;;5074135;28;20027;-31
2021/01/22 11:19:40;;;;;;;23.10;14.40;;;20.60;99.90;;;;;;5087723;28;20032;-31
2021/01/22 11:22:06;;;;;;;39.63;28.48;;;20.70;99.90;;;;;;5094621;28;20110;-30
2021/01/22 11:24:34;;;;;;;44.13;33.30;;;20.70;99.90;;;;;;5094684;28;20351;-31
2021/01/22 11:27:00;;;;;;;27.02;15.20;;;20.80;99.90;;;;;;5094458;28;20081;-31
2021/01/22 11:29:26;;;;;;;15.85;7.90;;;20.80;99.90;;;;;;5094455;28;20028;-31
2021/01/22 11:31:52;;;;;;;12.85;5.13;;;20.80;99.90;;;;;;5094512;28;20032;-31
2021/01/22 11:34:17;;;;;;;19.80;4.93;;;20.90;99.90;;;;;;5094412;28;20193;-31
2021/01/22 11:36:43;;;;;;;14.50;4.82;;;21.00;99.90;;;;;;5094323;28;20493;-32
2021/01/22 11:39:09;;;;;;;15.80;4.65;;;21.00;99.90;;;;;;5075909;28;20058;-31
2021/01/22 11:41:35;;;;;;;11.18;3.17;;;21.10;99.90;;;;;;5094407;28;20059;-31
2021/01/22 11:44:01;;;;;;;11.65;3.85;;;21.20;99.90;;;;;;5094192;28;20045;-31
2021/01/22 11:46:27;;;;;;;13.02;3.42;;;21.30;99.90;;;;;;5094450;28;20081;-31
2021/01/22 11:48:53;;;;;;;15.32;2.90;;;21.30;99.90;;;;;;5094016;28;20374;-31
2021/01/22 11:51:19;;;;;;;17.50;3.22;;;21.30;99.90;;;;;;5105078;28;20020;-31
2021/01/22 11:53:45;;;;;;;13.50;3.50;;;21.40;99.90;;;;;;5114372;28;20465;-31
2021/01/22 11:56:11;;;;;;;9.60;3.13;;;21.50;99.90;;;;;;5114227;28;20111;-31
2021/01/22 11:58:36;;;;;;;11.00;2.60;;;21.60;99.90;;;;;;5114069;28;20094;-31
2021/01/22 12:01:03;;;;;;;12.45;2.65;;;21.60;99.90;;;;;;5103975;28;20102;-31
2021/01/22 12:03:28;;;;;;;11.45;2.90;;;21.70;99.90;;;;;;5093467;28;20031;-31
2021/01/22 12:05:54;;;;;;;44.00;25.00;;;21.70;99.90;;;;;;5093535;28;20382;-32
2021/01/22 12:08:20;;;;;;;76.55;58.28;;;21.70;99.90;;;;;;5093782;28;20090;-31
2021/01/22 12:10:46;;;;;;;56.60;44.03;;;21.70;99.90;;;;;;5093436;28;20170;-32
2021/01/22 12:13:12;;;;;;;54.53;34.25;;;21.80;99.90;;;;;;5093232;28;20530;-31
2021/01/22 12:15:38;;;;;;;39.33;23.48;;;21.80;99.90;;;;;;5093462;28;20024;-31
2021/01/22 12:18:04;;;;;;;43.70;28.73;;;21.70;99.90;;;;;;5093644;28;20036;-31
2021/01/22 12:20:30;;;;;;;35.25;24.30;;;21.80;99.90;;;;;;5093650;28;20070;-31
2021/01/22 12:22:56;;;;;;;52.58;33.17;;;21.90;99.90;;;;;;5075189;28;20028;-31
2021/01/22 12:25:22;;;;;;;52.05;39.10;;;22.00;99.90;;;;;;5093413;28;20026;-32
2021/01/22 12:27:47;;;;;;;99.30;81.80;;;22.00;99.90;;;;;;5093524;28;20470;-32
2021/01/22 12:30:14;;;;;;;85.55;65.78;;;22.10;99.90;;;;;;5093065;28;20779;-32
2021/01/22 12:32:40;;;;;;;74.97;59.40;;;22.10;99.90;;;;;;5093660;28;20032;-31